Time;durP1;ratioP1;P1;durP2;ratioP2;P2;SDS_P1;SDS_P2;PMS_P1;PMS_P2;Temp;Humidity;BMP_temperature;BMP_pressure;BME280_temperature;BME280_humidity;BME280_pressure;Samples;Min_cycle;Max_cycle;Signal;HPM_P1;HPM_P2
2021/06/08 00:11:30;;;;;;;19.80;12.60;;;;;;;15.47;97.46;100744.80;714068;1199;114146;-78
2021/06/08 00:26:51;;;;;;;20.20;13.05;;;;;;;15.24;98.85;100743.66;714262;1200;115649;-78
2021/06/08 00:42:12;;;;;;;18.35;11.83;;;;;;;14.97;99.21;100725.13;714261;1199;114598;-78
2021/06/08 00:57:33;;;;;;;21.23;12.55;;;;;;;14.87;99.67;100711.17;714141;1198;115301;-77
2021/06/08 01:12:53;;;;;;;25.03;11.65;;;;;;;14.95;100.00;100707.77;714377;1199;115810;-77
2021/06/08 01:28:14;;;;;;;20.13;11.58;;;;;;;14.90;100.00;100707.41;714199;1190;115212;-78
2021/06/08 01:43:34;;;;;;;32.33;17.80;;;;;;;14.66;100.00;100710.67;714239;1192;114195;-77
2021/06/08 01:59:15;;;;;;;24.80;13.73;;;;;;;14.47;100.00;100715.09;714278;1202;114588;-77
2021/06/08 02:14:43;;;;;;;20.18;12.40;;;;;;;14.38;100.00;100721.27;713937;1199;114294;-77
2021/06/08 02:30:04;;;;;;;15.65;11.60;;;;;;;14.07;100.00;100740.08;714299;1199;115264;-78
2021/06/08 02:45:26;;;;;;;16.45;11.48;;;;;;;14.25;100.00;100729.55;714049;1202;114318;-78
2021/06/08 03:00:47;;;;;;;20.65;12.73;;;;;;;14.41;100.00;100727.09;714139;1200;115506;-78
2021/06/08 03:16:10;;;;;;;20.90;13.55;;;;;;;14.47;100.00;100750.23;714428;1177;114363;-77
2021/06/08 03:31:33;;;;;;;17.33;11.67;;;;;;;14.67;100.00;100755.41;714307;1199;115182;-78
2021/06/08 03:46:54;;;;;;;19.40;12.58;;;;;;;15.12;100.00;100756.28;714135;1199;115743;-78
2021/06/08 04:02:19;;;;;;;41.38;20.10;;;;;;;15.55;100.00;100759.89;714418;1200;114895;-78
2021/06/08 04:17:40;;;;;;;15.90;11.40;;;;;;;15.98;100.00;100762.59;714311;1200;116135;-77
2021/06/08 04:33:00;;;;;;;17.88;11.20;;;;;;;16.49;100.00;100764.44;714672;1202;115902;-77
2021/06/08 04:48:24;;;;;;;12.83;8.40;;;;;;;16.98;100.00;100759.20;714691;1199;115843;-77
2021/06/08 05:03:49;;;;;;;12.57;9.10;;;;;;;17.53;100.00;100757.66;717582;1166;114049;-71
2021/06/08 05:19:12;;;;;;;11.23;8.13;;;;;;;18.18;100.00;100778.86;714266;1199;115688;-73
2021/06/08 05:34:32;;;;;;;13.00;7.55;;;;;;;18.69;100.00;100781.89;713825;1199;114668;-74
2021/06/08 05:49:53;;;;;;;10.73;6.53;;;;;;;18.91;100.00;100774.95;713964;1201;114348;-75
2021/06/08 06:05:15;;;;;;;11.95;6.58;;;;;;;19.68;100.00;100767.74;713796;1200;115385;-74
2021/06/08 06:20:36;;;;;;;8.28;5.28;;;;;;;20.16;100.00;100779.85;714400;1199;115520;-74
2021/06/08 06:35:58;;;;;;;7.93;4.93;;;;;;;20.43;99.56;100779.14;714467;1199;115704;-74
2021/06/08 06:51:20;;;;;;;10.15;5.23;;;;;;;20.96;96.85;100764.72;714084;1200;115479;-74
2021/06/08 07:06:41;;;;;;;13.90;4.70;;;;;;;21.92;93.30;100757.95;713767;1200;114515;-72
2021/06/08 07:22:02;;;;;;;6.68;3.80;;;;;;;22.67;88.93;100768.68;714858;1199;114392;-72
2021/06/08 07:37:36;;;;;;;4.15;3.68;;;;;;;23.56;83.63;100777.34;716085;1200;115690;-72
2021/06/08 07:52:57;;;;;;;8.60;4.05;;;;;;;24.45;80.32;100781.34;714255;1200;115557;-72
2021/06/08 08:08:21;;;;;;;4.20;3.40;;;;;;;25.31;76.62;100793.30;714007;1200;114280;-73
2021/06/08 08:23:43;;;;;;;5.20;3.80;;;;;;;26.67;74.29;100797.73;713799;1200;113918;-83
2021/06/08 08:39:05;;;;;;;6.23;3.27;;;;;;;27.45;71.55;100784.29;713745;1200;113726;-82
2021/06/08 08:54:26;;;;;;;4.33;3.53;;;;;;;28.31;68.96;100793.56;713904;1199;113810;-84
2021/06/08 09:09:47;;;;;;;5.78;3.20;;;;;;;28.30;66.18;100784.66;714129;1200;113724;-80
2021/06/08 09:25:07;;;;;;;16.55;9.53;;;;;;;28.69;65.80;100782.15;718178;1200;115078;-81
2021/06/08 09:40:28;;;;;;;4.98;3.18;;;;;;;29.66;64.37;100789.27;714212;1202;115308;-81
2021/06/08 09:55:56;;;;;;;4.33;3.33;;;;;;;29.86;61.86;100772.47;714106;1202;115494;-80
2021/06/08 10:11:18;;;;;;;7.63;4.40;;;;;;;30.36;59.97;100760.58;714100;1177;114309;-80
2021/06/08 10:26:44;;;;;;;7.00;3.40;;;;;;;31.01;60.38;100749.77;713995;1199;114098;-80
2021/06/08 10:42:05;;;;;;;4.98;3.38;;;;;;;31.35;58.20;100751.33;714006;1202;114691;-81
2021/06/08 10:57:43;;;;;;;10.17;3.00;;;;;;;32.19;56.32;100748.69;713983;1199;114308;-81
2021/06/08 11:13:07;;;;;;;4.53;2.58;;;;;;;30.76;55.41;100742.26;713951;1202;113437;-79
2021/06/08 11:28:43;;;;;;;4.93;2.83;;;;;;;32.07;54.67;100724.50;714077;1203;114308;-80
2021/06/08 11:44:04;;;;;;;5.95;2.85;;;;;;;32.43;54.15;100719.11;714345;1200;113718;-81
2021/06/08 11:59:55;;;;;;;5.98;2.90;;;;;;;32.33;52.77;100708.25;713876;1200;114921;-80
2021/06/08 12:15:27;;;;;;;4.38;2.85;;;;;;;32.08;52.01;100692.74;714781;1203;114249;-81
2021/06/08 12:30:48;;;;;;;4.63;2.60;;;;;;;33.37;49.40;100695.34;713736;1202;114240;-80
2021/06/08 12:46:08;;;;;;;6.05;2.78;;;;;;;32.99;49.37;100690.27;714266;1199;114084;-80
2021/06/08 13:01:29;;;;;;;9.05;2.80;;;;;;;31.98;49.47;100697.08;714785;1199;114636;-79
2021/06/08 13:16:50;;;;;;;3.83;2.83;;;;;;;31.86;49.59;100693.81;713977;1203;114706;-76
2021/06/08 13:32:31;;;;;;;6.85;2.75;;;;;;;32.46;48.17;100687.91;715226;1202;115182;-76
2021/06/08 13:47:51;;;;;;;34.73;25.75;;;;;;;32.45;48.51;100688.98;714329;1202;114972;-78
2021/06/08 14:03:19;;;;;;;4.25;2.48;;;;;;;32.07;48.97;100681.09;720719;1199;114650;-81
2021/06/08 14:18:39;;;;;;;3.10;2.80;;;;;;;31.86;49.49;100689.19;714429;1199;113837;-78
2021/06/08 14:34:00;;;;;;;6.48;2.70;;;;;;;31.46;48.04;100693.37;714439;1200;115272;-77
2021/06/08 14:49:21;;;;;;;6.65;2.60;;;;;;;31.10;46.61;100681.58;714289;1199;114243;-77
2021/06/08 15:04:42;;;;;;;4.45;2.45;;;;;;;30.91;45.96;100679.28;714946;1199;114455;-80
2021/06/08 15:20:03;;;;;;;3.55;1.80;;;;;;;30.59;45.84;100672.02;714324;1199;114125;-80
2021/06/08 15:35:25;;;;;;;2.88;2.20;;;;;;;29.90;45.03;100673.59;714226;1200;114842;-76
2021/06/08 15:50:48;;;;;;;5.50;2.70;;;;;;;29.71;45.43;100668.50;714449;1199;113970;-77
2021/06/08 16:06:10;;;;;;;10.50;4.73;;;;;;;29.21;46.37;100659.52;714095;1199;115413;-77
2021/06/08 16:21:30;;;;;;;4.63;2.03;;;;;;;29.19;47.02;100653.56;714134;1199;115141;-77
2021/06/08 16:36:52;;;;;;;10.13;6.80;;;;;;;28.70;48.02;100651.55;714293;1203;115263;-78
2021/06/08 17:07:52;;;;;;;7.00;3.70;;;;;;;27.76;48.13;100652.08;714283;1177;113868;-80
2021/06/08 17:23:13;;;;;;;4.70;2.43;;;;;;;27.30;48.24;100655.45;714196;1199;114621;-81
2021/06/08 17:38:34;;;;;;;8.23;2.93;;;;;;;26.81;48.85;100661.14;714295;1199;114912;-81
2021/06/08 17:53:54;;;;;;;4.33;3.10;;;;;;;26.15;49.91;100673.77;714609;1199;114348;-79
2021/06/08 18:09:15;;;;;;;12.73;7.53;;;;;;;25.60;51.18;100672.80;714229;1200;114275;-76
2021/06/08 18:24:36;;;;;;;31.73;21.90;;;;;;;25.12;52.16;100666.31;714245;1200;114501;-77
2021/06/08 18:39:57;;;;;;;29.15;15.40;;;;;;;24.63;53.35;100684.92;714490;1200;114258;-79
2021/06/08 18:55:18;;;;;;;14.43;8.18;;;;;;;23.94;55.74;100684.75;714305;1200;115341;-78
2021/06/08 19:10:38;;;;;;;35.85;17.43;;;;;;;23.19;56.80;100690.55;714895;1203;114856;-80
2021/06/08 19:25:58;;;;;;;52.57;27.13;;;;;;;22.60;57.66;100703.70;714911;1199;115092;-79
2021/06/08 19:41:19;;;;;;;22.68;12.00;;;;;;;21.87;60.37;100709.69;716092;1177;114623;-79
2021/06/08 19:56:40;;;;;;;25.40;12.43;;;;;;;21.07;61.61;100713.50;717303;1199;116284;-80
2021/06/08 20:12:02;;;;;;;12.63;6.28;;;;;;;20.46;62.69;100719.33;715653;1200;114227;-81
2021/06/08 20:27:27;;;;;;;14.67;7.73;;;;;;;19.82;64.21;100730.69;716146;1199;114033;-81
2021/06/08 20:42:48;;;;;;;13.23;8.30;;;;;;;19.30;65.72;100722.59;717586;1176;114067;-80
2021/06/08 20:58:09;;;;;;;10.43;6.25;;;;;;;18.94;66.95;100726.74;715352;1199;114245;-80
2021/06/08 21:13:30;;;;;;;11.88;6.25;;;;;;;18.74;68.49;100752.95;715561;1199;114026;-80
2021/06/08 21:28:50;;;;;;;8.53;6.40;;;;;;;18.40;70.36;100762.14;715055;1203;113904;-79
2021/06/08 21:44:12;;;;;;;24.70;12.10;;;;;;;18.14;71.45;100765.09;714571;1200;114565;-82
2021/06/08 21:59:33;;;;;;;21.03;10.55;;;;;;;17.96;73.41;100784.76;714176;1203;113644;-80
2021/06/08 22:14:53;;;;;;;15.43;9.00;;;;;;;17.48;75.36;100788.34;716257;1202;115189;-81
2021/06/08 22:30:15;;;;;;;17.70;9.33;;;;;;;17.35;77.41;100781.71;714353;1201;115508;-83
2021/06/08 22:45:36;;;;;;;17.15;9.03;;;;;;;16.93;79.21;100786.22;714290;1202;115381;-83
2021/06/08 23:00:56;;;;;;;13.90;8.30;;;;;;;16.70;80.13;100785.98;714221;1199;115053;-81
2021/06/08 23:16:17;;;;;;;17.57;8.30;;;;;;;16.13;81.96;100784.83;714062;1203;113960;-83
2021/06/08 23:31:37;;;;;;;16.35;10.70;;;;;;;15.87;84.54;100766.36;714082;1203;115279;-81
2021/06/08 23:46:58;;;;;;;22.63;11.80;;;;;;;15.95;86.96;100766.39;714213;1200;115608;-81
